Time;durP1;ratioP1;P1;durP2;ratioP2;P2;SDS_P1;SDS_P2;PMS_P1;PMS_P2;Temp;Humidity;BMP_temperature;BMP_pressure;BME280_temperature;BME280_humidity;BME280_pressure;Samples;Min_cycle;Max_cycle;Signal;HPM_P1;HPM_P2
2023/06/28 00:01:25;;;;;;;3.60;3.30;;;;;;;26.70;52.10;100803.26;110600;1266;22443;-51
2023/06/28 00:03:53;;;;;;;6.60;3.50;;;;;;;26.71;52.27;100801.52;110631;1259;22375;-47
2023/06/28 00:06:20;;;;;;;3.80;3.20;;;;;;;26.73;52.20;100798.03;110564;1257;22400;-52
2023/06/28 00:08:47;;;;;;;3.90;3.20;;;;;;;26.74;52.20;100797.42;110580;1263;22302;-48
2023/06/28 00:11:14;;;;;;;3.50;3.00;;;;;;;26.74;52.10;100799.02;110597;1265;22186;-50
2023/06/28 00:13:42;;;;;;;4.50;3.40;;;;;;;26.73;52.01;100804.27;110551;1256;22460;-48
2023/06/28 00:16:09;;;;;;;3.70;3.20;;;;;;;26.71;52.00;100805.49;110592;1262;22341;-47
2023/06/28 00:18:35;;;;;;;5.10;3.20;;;;;;;26.68;52.06;100803.59;110607;1255;22496;-49
2023/06/28 00:21:03;;;;;;;6.20;3.30;;;;;;;26.66;52.15;100813.24;110571;1262;22603;-49
2023/06/28 00:23:33;;;;;;;3.80;3.20;;;;;;;26.62;52.22;100816.90;110350;1269;22315;-46
2023/06/28 00:26:00;;;;;;;3.50;3.00;;;;;;;26.59;52.26;100817.34;110567;1264;22156;-46
2023/06/28 00:28:27;;;;;;;5.10;3.40;;;;;;;26.56;52.34;100817.13;110610;1263;22807;-48
2023/06/28 00:30:54;;;;;;;4.00;3.60;;;;;;;26.53;52.35;100818.73;110159;1266;22331;-51
2023/06/28 00:33:21;;;;;;;5.00;3.30;;;;;;;26.52;52.35;100817.83;110396;1271;22354;-46
2023/06/28 00:35:48;;;;;;;4.30;3.40;;;;;;;26.51;52.33;100825.22;110560;1258;22144;-47
2023/06/28 00:38:15;;;;;;;3.20;2.90;;;;;;;26.50;52.52;100823.17;110606;1265;22322;-49
2023/06/28 00:40:42;;;;;;;3.70;3.10;;;;;;;26.49;52.53;100828.75;110634;1264;23108;-47
2023/06/28 00:43:09;;;;;;;5.60;3.30;;;;;;;26.49;52.48;100828.05;110599;1256;22318;-50
2023/06/28 00:45:36;;;;;;;4.90;3.50;;;;;;;26.47;52.56;100833.35;110580;1256;22119;-46
2023/06/28 00:48:03;;;;;;;4.80;3.40;;;;;;;26.46;52.66;100834.03;110578;1265;22152;-47
2023/06/28 00:50:30;;;;;;;7.30;3.40;;;;;;;26.45;52.59;100831.74;110557;1257;22151;-52
2023/06/28 00:52:57;;;;;;;8.00;3.30;;;;;;;26.44;52.64;100834.86;110377;1266;22212;-49
2023/06/28 00:55:24;;;;;;;4.70;3.20;;;;;;;26.43;52.67;100838.02;110330;1263;22413;-52
2023/06/28 00:57:51;;;;;;;4.40;3.40;;;;;;;26.41;52.56;100844.22;110441;1267;22861;-46
2023/06/28 01:00:19;;;;;;;5.90;3.60;;;;;;;26.38;52.49;100842.90;110381;1268;22417;-48
2023/06/28 01:02:49;;;;;;;4.60;3.60;;;;;;;26.35;52.51;100847.59;110595;1263;22244;-47
2023/06/28 01:05:19;;;;;;;3.60;3.30;;;;;;;26.31;52.54;100851.88;110627;1263;22860;-48
2023/06/28 01:07:50;;;;;;;4.60;3.20;;;;;;;26.26;52.70;100849.95;110600;1264;22277;-50
2023/06/28 01:10:17;;;;;;;5.90;3.60;;;;;;;26.22;52.75;100850.00;110612;1270;22908;-48
2023/06/28 01:12:46;;;;;;;5.00;3.60;;;;;;;26.18;52.88;100847.28;110490;1266;22304;-47
2023/06/28 01:15:13;;;;;;;3.60;3.30;;;;;;;26.15;52.70;100846.89;110296;1267;22183;-46
2023/06/28 01:17:41;;;;;;;7.20;3.20;;;;;;;26.10;52.50;100845.12;110557;1257;22527;-51
2023/06/28 01:20:08;;;;;;;6.10;3.80;;;;;;;26.08;52.12;100848.16;110587;1259;22402;-46
2023/06/28 01:22:40;;;;;;;4.60;3.60;;;;;;;26.06;52.05;100845.67;110578;1269;22358;-46
2023/06/28 01:25:09;;;;;;;5.10;3.40;;;;;;;26.03;52.00;100850.88;110388;1266;23163;-46
2023/06/28 01:27:40;;;;;;;4.00;3.60;;;;;;;25.99;52.07;100847.64;110574;1260;22472;-48
2023/06/28 01:30:07;;;;;;;4.80;3.60;;;;;;;25.90;52.36;100849.14;110294;1274;22818;-46
2023/06/28 01:32:35;;;;;;;4.40;3.70;;;;;;;25.86;52.65;100852.70;110161;1268;22186;-48
2023/06/28 01:35:02;;;;;;;4.50;3.30;;;;;;;25.81;52.62;100856.45;110168;1268;22162;-51
2023/06/28 01:37:29;;;;;;;4.10;3.40;;;;;;;25.77;52.63;100852.36;110201;1264;22187;-46
2023/06/28 01:39:55;;;;;;;3.60;3.30;;;;;;;25.72;52.75;100845.83;110048;1261;22323;-52
2023/06/28 01:42:22;;;;;;;4.00;3.50;;;;;;;25.68;52.76;100842.60;110191;1268;22321;-49
2023/06/28 01:44:49;;;;;;;7.80;3.80;;;;;;;25.63;52.86;100846.02;110166;1268;22286;-46
2023/06/28 01:47:16;;;;;;;4.00;3.60;;;;;;;25.59;52.70;100853.86;110053;1267;22326;-46
2023/06/28 01:49:42;;;;;;;4.90;4.00;;;;;;;25.56;52.76;100856.77;110168;1268;23146;-49
2023/06/28 01:52:09;;;;;;;4.70;4.20;;;;;;;25.59;52.75;100860.61;110037;1271;22417;-46
2023/06/28 01:54:38;;;;;;;4.90;3.50;;;;;;;25.58;52.87;100862.84;110161;1267;22365;-51
2023/06/28 01:57:04;;;;;;;5.40;3.90;;;;;;;25.58;52.83;100865.52;110002;1270;22667;-51
2023/06/28 01:59:31;;;;;;;6.40;4.40;;;;;;;25.57;52.81;100868.58;110053;1262;22146;-46
2023/06/28 02:01:58;;;;;;;4.10;3.70;;;;;;;25.56;52.92;100873.29;110063;1261;22162;-46
2023/06/28 02:04:25;;;;;;;6.80;3.80;;;;;;;25.55;52.99;100886.89;110021;1263;22340;-47
2023/06/28 02:06:54;;;;;;;7.70;3.70;;;;;;;25.54;53.02;100893.55;110171;1268;22261;-50
2023/06/28 02:09:21;;;;;;;8.00;4.00;;;;;;;25.51;53.04;100889.14;110250;1266;22431;-47
2023/06/28 02:11:48;;;;;;;4.90;4.20;;;;;;;25.49;53.12;100892.33;110024;1271;22333;-46
2023/06/28 02:14:15;;;;;;;7.90;4.80;;;;;;;25.48;53.20;100890.50;110276;1256;22173;-46
2023/06/28 02:16:42;;;;;;;6.60;4.50;;;;;;;25.47;53.24;100885.42;110150;1269;22321;-49
2023/06/28 02:19:12;;;;;;;10.70;9.70;;;;;;;25.47;53.23;100881.69;110124;1266;22363;-46
2023/06/28 02:21:42;;;;;;;5.70;4.90;;;;;;;25.47;53.39;100883.33;110378;1266;22942;-46
2023/06/28 02:24:09;;;;;;;6.70;5.40;;;;;;;25.46;53.57;100883.20;110106;1274;22242;-46
2023/06/28 02:26:38;;;;;;;5.20;4.70;;;;;;;25.43;53.65;100883.55;110367;1266;22302;-46
2023/06/28 02:29:05;;;;;;;7.60;4.90;;;;;;;25.42;53.78;100884.76;110367;1273;22978;-48
2023/06/28 02:31:32;;;;;;;5.40;4.90;;;;;;;25.41;53.90;100886.95;110347;1268;22186;-49
2023/06/28 02:33:58;;;;;;;6.30;4.90;;;;;;;25.39;54.64;100886.61;110386;1270;23072;-46
2023/06/28 02:36:25;;;;;;;5.50;5.00;;;;;;;25.32;55.20;100886.63;110344;1266;23172;-48
2023/06/28 02:38:53;;;;;;;5.40;4.90;;;;;;;25.23;55.62;100878.98;110375;1270;22203;-51
2023/06/28 02:41:19;;;;;;;6.50;4.80;;;;;;;25.16;56.33;100878.87;110358;1269;22228;-51
2023/06/28 02:43:46;;;;;;;5.20;4.70;;;;;;;25.12;56.85;100885.22;110597;1259;22293;-49
2023/06/28 02:46:13;;;;;;;5.80;4.70;;;;;;;25.09;56.77;100891.85;110595;1262;22118;-50
2023/06/28 02:48:40;;;;;;;5.20;4.70;;;;;;;25.06;56.63;100886.98;110593;1263;22368;-46
2023/06/28 02:51:07;;;;;;;7.80;4.90;;;;;;;25.03;56.91;100883.45;110265;1269;22897;-48
2023/06/28 02:53:34;;;;;;;5.60;4.60;;;;;;;25.02;56.92;100880.73;110404;1267;22371;-46
2023/06/28 02:56:00;;;;;;;5.00;4.50;;;;;;;25.02;56.88;100882.66;110646;1263;22365;-47
2023/06/28 02:58:47;;;;;;;5.30;4.80;;;;;;;25.01;56.54;100877.25;110430;1260;22147;-48
2023/06/28 03:01:14;;;;;;;7.50;5.20;;;;;;;24.99;56.43;100875.66;110287;1274;22347;-51
2023/06/28 03:03:42;;;;;;;5.00;4.50;;;;;;;24.98;56.60;100876.63;110563;1263;22408;-49
2023/06/28 03:06:09;;;;;;;5.20;4.70;;;;;;;24.97;56.31;100875.66;110288;1268;22285;-49
2023/06/28 03:08:36;;;;;;;4.40;4.00;;;;;;;24.95;56.34;100870.98;110651;1264;22325;-50
2023/06/28 03:11:03;;;;;;;4.70;4.30;;;;;;;24.93;56.31;100870.77;110603;1270;23093;-46
2023/06/28 03:13:30;;;;;;;4.80;4.30;;;;;;;24.93;56.84;100874.20;110315;1259;22477;-46
2023/06/28 03:15:57;;;;;;;5.50;4.90;;;;;;;24.92;56.81;100877.95;110550;1267;22084;-51
2023/06/28 03:18:24;;;;;;;5.10;4.50;;;;;;;24.92;56.99;100885.22;110547;1266;22201;-52
2023/06/28 03:20:51;;;;;;;5.50;4.40;;;;;;;24.93;57.23;100897.81;110535;1265;22294;-47
2023/06/28 03:23:18;;;;;;;5.20;4.70;;;;;;;24.92;57.42;100898.20;110616;1263;22336;-49
2023/06/28 03:25:45;;;;;;;4.70;4.20;;;;;;;24.91;57.03;100902.73;110541;1259;22470;-47
2023/06/28 03:28:12;;;;;;;4.50;3.80;;;;;;;24.90;57.11;100911.30;110064;1264;22122;-49
2023/06/28 03:30:39;;;;;;;4.90;4.50;;;;;;;24.89;56.92;100908.60;110577;1265;22429;-46
2023/06/28 03:33:07;;;;;;;4.80;4.30;;;;;;;24.87;57.00;100910.52;110496;1265;22147;-48
2023/06/28 03:35:33;;;;;;;5.40;4.60;;;;;;;24.84;56.67;100918.17;110590;1266;22427;-46
2023/06/28 03:38:00;;;;;;;4.60;4.20;;;;;;;24.82;56.87;100917.96;110548;1258;22149;-47
2023/06/28 03:40:29;;;;;;;4.50;3.80;;;;;;;24.81;56.90;100918.95;110463;1272;22303;-49
2023/06/28 03:42:56;;;;;;;5.60;4.00;;;;;;;24.82;57.15;100920.27;110627;1256;22353;-46
2023/06/28 03:45:22;;;;;;;4.20;3.90;;;;;;;24.88;56.72;100920.35;110231;1267;22768;-47
2023/06/28 03:47:51;;;;;;;4.10;3.80;;;;;;;24.98;56.66;100927.54;110560;1256;23246;-47
2023/06/28 03:50:18;;;;;;;4.30;4.00;;;;;;;25.08;56.50;100932.63;110208;1267;22271;-47
2023/06/28 03:52:45;;;;;;;4.60;4.10;;;;;;;25.18;56.43;100937.29;110505;1265;23103;-47
2023/06/28 03:55:12;;;;;;;4.80;3.70;;;;;;;25.26;55.98;100929.20;110504;1265;22283;-48
2023/06/28 03:57:39;;;;;;;4.70;4.20;;;;;;;25.31;55.72;100920.59;110555;1266;23029;-46
2023/06/28 04:00:08;;;;;;;4.10;3.70;;;;;;;25.34;55.72;100922.83;110610;1263;23141;-47
2023/06/28 04:02:40;;;;;;;4.60;4.20;;;;;;;25.36;55.53;100930.48;110097;1274;22294;-51
2023/06/28 04:05:07;;;;;;;3.90;3.60;;;;;;;25.38;55.41;100932.31;110573;1265;22328;-53
2023/06/28 04:07:34;;;;;;;4.40;3.40;;;;;;;25.39;55.41;100930.08;110589;1263;23074;-46
2023/06/28 04:10:03;;;;;;;4.40;4.00;;;;;;;25.41;55.57;100931.73;110430;1265;22467;-46
2023/06/28 04:12:30;;;;;;;4.30;3.90;;;;;;;25.44;55.51;100936.08;110560;1263;22235;-48
2023/06/28 04:14:57;;;;;;;4.40;4.00;;;;;;;25.50;55.23;100945.55;110553;1254;22304;-48
2023/06/28 04:17:24;;;;;;;4.20;3.80;;;;;;;25.56;55.00;100945.91;110578;1266;22137;-46
2023/06/28 04:19:51;;;;;;;4.30;3.70;;;;;;;25.57;54.72;100948.51;110529;1256;22236;-49
2023/06/28 04:22:18;;;;;;;3.90;3.60;;;;;;;25.54;54.66;100949.46;109852;1256;1002474;-49
2023/06/28 04:24:45;;;;;;;5.20;3.60;;;;;;;25.51;54.54;100953.30;110625;1264;22440;-47
2023/06/28 04:27:14;;;;;;;4.00;3.60;;;;;;;25.46;54.57;100953.89;110608;1267;22344;-45
2023/06/28 04:29:41;;;;;;;4.20;3.80;;;;;;;25.41;55.10;100965.30;110504;1257;22235;-47
2023/06/28 04:32:21;;;;;;;6.60;3.60;;;;;;;25.36;55.31;100973.64;110534;1263;22122;-48
2023/06/28 04:34:52;;;;;;;5.30;3.60;;;;;;;25.31;55.38;100975.48;110635;1263;22290;-47
2023/06/28 04:37:20;;;;;;;4.10;3.70;;;;;;;25.27;55.33;100984.54;110494;1266;22722;-47
2023/06/28 04:39:46;;;;;;;5.20;3.70;;;;;;;25.24;55.33;100979.77;110538;1264;22390;-47
2023/06/28 04:42:15;;;;;;;4.10;3.80;;;;;;;25.24;55.57;100972.38;110551;1256;22122;-47
2023/06/28 04:44:43;;;;;;;7.00;4.10;;;;;;;25.22;55.51;100975.17;110320;1274;22132;-50
2023/06/28 04:47:15;;;;;;;4.50;3.80;;;;;;;25.19;55.57;100979.48;110662;1251;22863;-46
2023/06/28 04:49:47;;;;;;;5.60;3.30;;;;;;;25.18;55.87;100984.74;110568;1265;22362;-48
2023/06/28 04:52:15;;;;;;;4.50;3.60;;;;;;;25.16;55.84;100993.55;110594;1251;23149;-52
2023/06/28 04:54:41;;;;;;;5.00;3.70;;;;;;;25.18;55.48;100999.43;110556;1263;22349;-47
2023/06/28 04:57:08;;;;;;;4.40;4.00;;;;;;;25.20;55.46;100997.35;110644;1263;22266;-46
2023/06/28 04:59:35;;;;;;;4.30;3.30;;;;;;;25.20;55.58;100998.20;110605;1251;22433;-46
2023/06/28 05:02:05;;;;;;;4.00;3.60;;;;;;;25.17;55.68;101004.29;110424;1266;22160;-48
2023/06/28 05:04:32;;;;;;;3.30;3.00;;;;;;;25.17;55.25;101002.94;110394;1269;22298;-49
2023/06/28 05:07:03;;;;;;;5.60;3.30;;;;;;;25.17;54.75;101004.47;110541;1255;22174;-46
2023/06/28 05:09:31;;;;;;;;;;;;;;;25.18;54.46;101007.23;110616;1264;22428;-47
2023/06/28 05:11:58;;;;;;;3.30;3.00;;;;;;;25.19;54.11;101013.42;110418;1266;22129;-46
2023/06/28 05:14:25;;;;;;;3.70;3.40;;;;;;;25.17;54.29;101010.33;110536;1268;22295;-46
2023/06/28 05:16:52;;;;;;;3.40;3.10;;;;;;;25.17;54.22;101010.36;110599;1264;23228;-51
2023/06/28 05:19:19;;;;;;;3.50;3.20;;;;;;;25.20;54.15;101013.81;110601;1263;22394;-46
2023/06/28 05:21:46;;;;;;;3.60;3.30;;;;;;;25.32;54.27;101016.60;110485;1270;23059;-47
2023/06/28 05:24:15;;;;;;;4.00;3.20;;;;;;;25.51;54.57;101021.64;110575;1263;23076;-46
2023/06/28 05:26:42;;;;;;;3.80;2.90;;;;;;;25.74;54.11;101026.70;110579;1256;22401;-49
2023/06/28 05:29:09;;;;;;;2.70;2.50;;;;;;;25.93;52.73;101023.42;110572;1263;22279;-46
2023/06/28 05:31:36;;;;;;;3.20;2.60;;;;;;;26.07;51.83;101021.42;110550;1263;22424;-53
2023/06/28 05:34:03;;;;;;;2.50;2.30;;;;;;;26.15;50.64;101026.56;110571;1263;22333;-46
2023/06/28 05:36:32;;;;;;;3.10;2.20;;;;;;;26.17;49.76;101026.45;110590;1260;22296;-47
2023/06/28 05:38:58;;;;;;;2.40;2.10;;;;;;;26.16;49.38;101026.73;110602;1260;23092;-47
2023/06/28 05:41:25;;;;;;;2.70;1.90;;;;;;;26.13;49.13;101037.80;110583;1256;22839;-47
2023/06/28 05:43:52;;;;;;;2.40;1.90;;;;;;;26.05;48.89;101044.11;110520;1260;22128;-46
2023/06/28 05:46:19;;;;;;;2.20;1.90;;;;;;;25.93;49.07;101054.58;110613;1260;22299;-48
2023/06/28 05:48:46;;;;;;;2.40;2.20;;;;;;;25.78;49.19;101060.48;110592;1251;22951;-47
2023/06/28 05:51:14;;;;;;;4.10;2.30;;;;;;;25.66;49.38;101066.09;110544;1257;22153;-46
2023/06/28 05:53:41;;;;;;;3.00;2.80;;;;;;;25.53;50.08;101068.59;110564;1261;22290;-49
2023/06/28 05:56:08;;;;;;;3.20;2.50;;;;;;;25.41;50.73;101078.64;110588;1259;22389;-53
2023/06/28 05:58:35;;;;;;;4.40;2.50;;;;;;;25.33;51.83;101079.21;110534;1260;22515;-47
2023/06/28 06:01:02;;;;;;;2.70;2.20;;;;;;;25.27;53.00;101073.31;110591;1261;22293;-48
2023/06/28 06:03:31;;;;;;;7.50;2.60;;;;;;;25.24;53.17;101069.23;110596;1254;22393;-46
2023/06/28 06:05:58;;;;;;;2.60;2.40;;;;;;;25.22;52.82;101074.56;110553;1261;22935;-46
2023/06/28 06:08:25;;;;;;;2.50;2.30;;;;;;;25.21;52.50;101076.64;110179;1264;22301;-53
2023/06/28 06:10:52;;;;;;;3.20;2.80;;;;;;;25.22;53.05;101079.55;110535;1254;22137;-49
2023/06/28 06:13:19;;;;;;;2.90;2.20;;;;;;;25.23;53.13;101070.39;110527;1260;22146;-46
2023/06/28 06:15:46;;;;;;;2.70;2.20;;;;;;;25.22;52.93;101064.83;110572;1264;22847;-52
2023/06/28 06:18:12;;;;;;;2.90;2.40;;;;;;;25.20;52.90;101064.66;110556;1261;22141;-47
2023/06/28 06:20:39;;;;;;;3.10;2.20;;;;;;;25.17;53.10;101063.23;110503;1256;22447;-47
2023/06/28 06:23:07;;;;;;;2.60;2.40;;;;;;;25.13;53.43;101069.77;110504;1274;22468;-47
2023/06/28 06:25:35;;;;;;;2.70;2.20;;;;;;;25.09;53.41;101080.58;110603;1255;22380;-46
2023/06/28 06:28:02;;;;;;;2.70;2.50;;;;;;;25.04;53.52;101089.29;110584;1257;22272;-48
2023/06/28 06:30:29;;;;;;;2.50;2.30;;;;;;;24.98;53.18;101083.23;110350;1255;22142;-48
2023/06/28 06:32:59;;;;;;;3.70;2.80;;;;;;;24.90;53.39;101081.16;110547;1260;22777;-52
2023/06/28 06:35:27;;;;;;;2.60;2.40;;;;;;;24.85;53.54;101083.52;110581;1257;22469;-47
2023/06/28 06:37:54;;;;;;;2.80;2.60;;;;;;;24.82;53.37;101086.70;110210;1264;22314;-46
2023/06/28 06:40:20;;;;;;;2.80;2.50;;;;;;;24.83;53.10;101084.23;110535;1263;22377;-51
2023/06/28 06:42:47;;;;;;;3.00;2.40;;;;;;;24.82;52.43;101095.08;110601;1251;22398;-49
2023/06/28 06:45:17;;;;;;;2.50;2.30;;;;;;;24.81;52.49;101101.17;110562;1267;22153;-51
2023/06/28 06:47:44;;;;;;;3.20;2.10;;;;;;;24.78;52.02;101106.41;110556;1260;22426;-46
2023/06/28 06:50:11;;;;;;;2.40;2.20;;;;;;;24.76;51.55;101115.80;110219;1264;22275;-46
2023/06/28 06:52:40;;;;;;;3.10;2.40;;;;;;;24.75;51.55;101123.66;110584;1255;22224;-52
2023/06/28 06:55:07;;;;;;;2.50;2.30;;;;;;;24.73;51.55;101132.30;110586;1262;22269;-47
2023/06/28 06:57:33;;;;;;;2.20;2.00;;;;;;;24.72;51.27;101130.75;110592;1251;22436;-45
2023/06/28 07:00:00;;;;;;;3.20;2.30;;;;;;;24.72;51.32;101128.98;110567;1259;22433;-52
2023/06/28 07:02:27;;;;;;;2.60;2.30;;;;;;;24.71;51.49;101124.59;110566;1251;23017;-47
2023/06/28 07:04:54;;;;;;;3.10;2.40;;;;;;;24.70;51.36;101135.20;110534;1264;23103;-51
2023/06/28 07:07:21;;;;;;;4.00;2.20;;;;;;;24.67;51.32;101150.84;110555;1267;22155;-50
2023/06/28 07:09:48;;;;;;;5.70;2.10;;;;;;;24.64;51.34;101152.50;110535;1260;22147;-49
2023/06/28 07:12:15;;;;;;;2.30;2.00;;;;;;;24.61;51.49;101147.95;110315;1255;22186;-46
2023/06/28 07:14:41;;;;;;;3.90;2.50;;;;;;;24.57;50.91;101145.02;110542;1263;22283;-48
2023/06/28 07:17:09;;;;;;;2.90;2.50;;;;;;;24.52;50.08;101143.61;110606;1263;22343;-47
2023/06/28 07:19:36;;;;;;;3.30;2.40;;;;;;;24.48;50.30;101150.36;110608;1251;23115;-50
2023/06/28 07:22:03;;;;;;;2.10;1.90;;;;;;;24.45;50.25;101140.42;110497;1260;23091;-47
2023/06/28 07:24:29;;;;;;;4.20;2.20;;;;;;;24.42;50.29;101131.96;110572;1259;22380;-46
2023/06/28 07:26:56;;;;;;;3.20;2.30;;;;;;;24.40;50.03;101127.36;110358;1267;22528;-46
2023/06/28 07:29:24;;;;;;;4.50;2.60;;;;;;;24.37;49.60;101126.65;110552;1263;22296;-53
2023/06/28 07:31:51;;;;;;;2.40;2.10;;;;;;;24.37;49.44;101137.15;110506;1264;22495;-47
2023/06/28 07:34:18;;;;;;;4.30;1.80;;;;;;;24.36;49.01;101134.15;110591;1256;22131;-46
2023/06/28 07:36:45;;;;;;;2.40;1.90;;;;;;;24.37;48.89;101138.05;110589;1264;22930;-47
2023/06/28 07:39:12;;;;;;;3.90;2.30;;;;;;;24.38;48.44;101143.09;110597;1260;22200;-48
2023/06/28 07:41:39;;;;;;;2.60;2.00;;;;;;;24.40;47.96;101137.64;110535;1263;22416;-48
2023/06/28 07:44:05;;;;;;;2.60;2.20;;;;;;;24.42;48.15;101127.70;110616;1256;22496;-46
2023/06/28 07:46:32;;;;;;;2.20;2.00;;;;;;;24.44;48.55;101117.77;110564;1256;22256;-46
2023/06/28 07:49:00;;;;;;;4.70;2.90;;;;;;;24.49;48.56;101118.71;110528;1256;22434;-48
2023/06/28 07:51:27;;;;;;;3.50;2.60;;;;;;;24.52;48.83;101118.82;110536;1261;22356;-47
2023/06/28 07:53:53;;;;;;;6.10;2.50;;;;;;;24.55;48.63;101121.22;110584;1251;22144;-45
2023/06/28 07:56:20;;;;;;;3.60;2.50;;;;;;;24.57;48.52;101114.88;110569;1257;22137;-49
2023/06/28 07:58:47;;;;;;;6.80;2.90;;;;;;;24.58;48.69;101118.17;110606;1256;22190;-48
2023/06/28 08:01:15;;;;;;;4.30;2.90;;;;;;;24.59;48.80;101122.74;110549;1260;22397;-46
2023/06/28 08:03:42;;;;;;;2.70;2.40;;;;;;;24.60;48.89;101128.52;110543;1259;22461;-48
2023/06/28 08:06:08;;;;;;;5.50;2.50;;;;;;;24.63;49.11;101133.38;110598;1259;22900;-47
2023/06/28 08:08:37;;;;;;;2.90;2.10;;;;;;;24.70;49.56;101132.92;110539;1267;22371;-47
2023/06/28 08:11:04;;;;;;;4.60;2.60;;;;;;;24.76;49.61;101137.08;110537;1263;22279;-46
2023/06/28 08:13:31;;;;;;;2.90;2.50;;;;;;;24.81;49.07;101138.24;110437;1257;22587;-48
2023/06/28 08:15:58;;;;;;;4.60;2.60;;;;;;;24.87;48.72;101143.69;110442;1265;22127;-48
2023/06/28 08:18:26;;;;;;;3.10;2.00;;;;;;;24.92;48.42;101143.66;110506;1260;22391;-47
2023/06/28 08:20:53;;;;;;;4.70;2.70;;;;;;;24.97;48.64;101144.50;110560;1260;22292;-48
2023/06/28 08:23:22;;;;;;;3.40;2.40;;;;;;;25.00;48.40;101142.89;110437;1266;23148;-49
2023/06/28 08:25:49;;;;;;;3.50;2.70;;;;;;;25.00;48.84;101142.50;110211;1258;22343;-46
2023/06/28 08:28:16;;;;;;;6.50;3.00;;;;;;;24.99;49.33;101148.45;110573;1256;22870;-46
2023/06/28 08:30:43;;;;;;;3.50;3.00;;;;;;;24.94;49.75;101146.52;110534;1264;22316;-46
2023/06/28 08:33:11;;;;;;;4.60;2.60;;;;;;;24.89;49.69;101142.82;110472;1261;22805;-46
2023/06/28 08:35:38;;;;;;;3.80;2.80;;;;;;;24.85;49.89;101141.72;110535;1261;22365;-45
2023/06/28 08:38:05;;;;;;;5.50;3.00;;;;;;;24.81;50.07;101143.58;109837;1261;1003024;-52
2023/06/28 08:40:33;;;;;;;3.40;3.00;;;;;;;24.78;50.00;101142.61;110565;1259;22294;-46
2023/06/28 08:43:03;;;;;;;3.30;2.50;;;;;;;24.75;49.53;101146.39;110619;1252;22280;-52
2023/06/28 08:45:33;;;;;;;2.80;2.50;;;;;;;24.72;49.76;101152.40;110562;1263;23111;-46
2023/06/28 08:48:00;;;;;;;3.80;3.00;;;;;;;24.72;49.72;101156.52;110569;1259;22119;-49
2023/06/28 08:50:38;;;;;;;3.40;2.20;;;;;;;24.73;49.65;101149.69;110609;1264;22336;-48
2023/06/28 08:53:08;;;;;;;3.70;3.10;;;;;;;24.76;49.44;101135.80;110390;1256;22122;-47
2023/06/28 08:55:36;;;;;;;6.40;2.50;;;;;;;24.79;48.68;101128.33;110369;1266;22463;-48
2023/06/28 08:58:03;;;;;;;4.00;2.10;;;;;;;24.82;48.42;101131.27;110580;1259;22384;-49
2023/06/28 09:00:31;;;;;;;6.30;2.90;;;;;;;24.85;47.43;101138.64;110434;1266;22364;-47
2023/06/28 09:02:58;;;;;;;3.30;2.40;;;;;;;24.87;46.79;101162.80;110596;1260;22281;-46
2023/06/28 09:05:25;;;;;;;2.30;2.00;;;;;;;24.88;46.18;101176.59;110535;1254;22428;-47
2023/06/28 09:07:53;;;;;;;2.30;2.00;;;;;;;24.87;44.90;101181.84;110630;1253;22096;-48
2023/06/28 09:10:20;;;;;;;4.70;2.10;;;;;;;24.83;44.38;101180.74;110427;1258;22353;-45
2023/06/28 09:12:47;;;;;;;2.00;1.80;;;;;;;24.80;43.97;101177.22;110494;1254;22997;-48
2023/06/28 09:15:16;;;;;;;2.20;1.80;;;;;;;24.78;43.73;101175.26;110490;1256;22334;-47
2023/06/28 09:17:43;;;;;;;5.80;2.10;;;;;;;24.76;44.10;101179.30;110587;1256;23650;-47
2023/06/28 09:20:16;;;;;;;3.40;2.00;;;;;;;24.74;44.08;101183.00;110533;1256;22152;-47
2023/06/28 09:22:55;;;;;;;2.80;2.00;;;;;;;24.72;44.43;101197.33;110582;1264;22276;-47
2023/06/28 09:25:27;;;;;;;3.10;2.00;;;;;;;24.69;44.18;101191.68;110459;1261;22260;-48
2023/06/28 09:27:55;;;;;;;3.30;1.90;;;;;;;24.66;44.07;101181.45;110552;1267;22842;-45
2023/06/28 09:30:41;;;;;;;2.40;2.00;;;;;;;24.62;44.34;101188.12;110406;1265;23212;-46
2023/06/28 09:33:08;;;;;;;5.40;2.50;;;;;;;24.60;44.52;101202.82;110671;1259;22399;-45
2023/06/28 09:35:36;;;;;;;3.20;2.20;;;;;;;24.58;44.50;101205.61;110563;1253;22574;-48
2023/06/28 09:38:07;;;;;;;2.30;2.10;;;;;;;24.56;44.92;101189.12;110568;1264;22131;-47
2023/06/28 09:40:34;;;;;;;2.70;2.00;;;;;;;24.54;45.07;101194.38;110610;1259;22929;-47
2023/06/28 09:43:01;;;;;;;2.10;1.80;;;;;;;24.52;44.81;101190.30;110426;1265;22316;-50
2023/06/28 09:45:35;;;;;;;4.00;2.10;;;;;;;24.49;44.60;101183.41;110604;1263;22131;-47
2023/06/28 09:48:05;;;;;;;2.80;2.10;;;;;;;24.46;45.13;101196.03;110584;1251;22127;-47
2023/06/28 09:50:41;;;;;;;2.90;2.60;;;;;;;24.44;45.35;101191.06;110573;1251;22150;-48
2023/06/28 09:53:12;;;;;;;2.10;1.90;;;;;;;24.42;45.57;101182.87;110367;1268;22803;-46
2023/06/28 09:55:49;;;;;;;2.60;2.10;;;;;;;24.40;45.34;101173.65;110426;1268;22485;-46
2023/06/28 09:58:17;;;;;;;3.60;2.10;;;;;;;24.40;45.32;101173.84;110610;1259;22295;-45
2023/06/28 10:00:46;;;;;;;2.10;1.90;;;;;;;24.40;45.22;101177.85;110227;1265;22421;-51
2023/06/28 10:03:14;;;;;;;2.30;2.00;;;;;;;24.44;44.93;101177.98;110571;1259;22169;-48
2023/06/28 10:05:43;;;;;;;2.30;1.90;;;;;;;24.48;44.82;101175.32;110573;1252;23125;-46
2023/06/28 10:08:13;;;;;;;2.10;1.70;;;;;;;24.55;44.00;101173.73;110544;1264;22227;-46
2023/06/28 10:10:42;;;;;;;2.10;1.90;;;;;;;24.64;43.98;101165.42;110572;1265;22399;-47
2023/06/28 10:13:16;;;;;;;2.50;1.90;;;;;;;24.70;43.90;101162.82;110584;1266;22975;-46
2023/06/28 10:16:02;;;;;;;2.60;2.20;;;;;;;24.75;44.34;101165.39;110592;1259;22233;-45
2023/06/28 10:18:29;;;;;;;2.70;1.90;;;;;;;24.80;44.43;101164.27;110553;1257;22457;-51
2023/06/28 10:20:57;;;;;;;2.40;2.10;;;;;;;24.84;44.38;101157.06;110601;1256;22301;-47
2023/06/28 10:23:26;;;;;;;1.90;1.70;;;;;;;24.83;44.00;101143.06;110530;1274;22891;-46
2023/06/28 10:25:54;;;;;;;5.00;2.20;;;;;;;24.82;44.65;101146.73;109829;1259;1002294;-47
2023/06/28 10:28:21;;;;;;;3.50;2.50;;;;;;;24.79;44.61;101146.23;110608;1263;22975;-46
2023/06/28 10:30:48;;;;;;;4.00;2.30;;;;;;;24.76;44.78;101145.08;110246;1263;22362;-45
2023/06/28 10:33:17;;;;;;;2.80;2.00;;;;;;;24.73;45.07;101146.13;110526;1264;22424;-46
2023/06/28 10:35:44;;;;;;;3.00;2.60;;;;;;;24.73;45.54;101144.91;109683;1265;1002581;-46
2023/06/28 10:38:11;;;;;;;3.40;2.30;;;;;;;24.73;46.14;101147.02;110583;1274;22411;-47
2023/06/28 10:40:39;;;;;;;2.40;2.00;;;;;;;24.74;46.35;101143.78;110201;1275;22359;-46
2023/06/28 10:43:06;;;;;;;2.90;2.10;;;;;;;24.75;46.62;101141.55;110475;1255;22282;-46
2023/06/28 10:45:33;;;;;;;10.10;3.60;;;;;;;24.76;46.87;101144.56;110637;1253;22493;-49
2023/06/28 10:48:00;;;;;;;3.00;2.40;;;;;;;24.77;46.48;101146.74;110596;1257;22168;-47
2023/06/28 10:50:28;;;;;;;3.60;2.40;;;;;;;24.78;46.55;101149.00;110555;1268;22498;-46
2023/06/28 10:52:56;;;;;;;2.70;2.20;;;;;;;24.78;46.45;101150.96;110619;1252;22339;-47
2023/06/28 10:55:33;;;;;;;2.30;2.10;;;;;;;24.77;46.30;101154.20;110269;1263;22486;-48
2023/06/28 10:58:08;;;;;;;3.50;2.10;;;;;;;24.76;46.06;101153.91;110610;1263;22754;-46
2023/06/28 11:00:44;;;;;;;1.80;1.70;;;;;;;24.74;45.50;101152.31;110570;1256;22347;-47
2023/06/28 11:03:11;;;;;;;2.90;2.10;;;;;;;24.71;45.50;101156.95;110622;1252;22130;-47
2023/06/28 11:05:56;;;;;;;2.30;1.90;;;;;;;24.67;45.14;101165.59;110575;1259;23315;-48
2023/06/28 11:08:41;;;;;;;2.20;1.70;;;;;;;24.59;44.86;101169.91;110610;1262;23090;-48
2023/06/28 11:11:10;;;;;;;2.50;2.00;;;;;;;24.50;45.33;101171.08;110588;1261;22338;-45
2023/06/28 11:13:41;;;;;;;3.30;1.60;;;;;;;24.42;45.64;101169.77;110599;1259;23163;-51
2023/06/28 11:16:19;;;;;;;2.90;2.00;;;;;;;24.32;45.22;101157.39;110619;1262;22785;-52
2023/06/28 11:18:47;;;;;;;1.80;1.70;;;;;;;24.20;44.89;101151.06;110574;1260;22618;-47
2023/06/28 11:21:15;;;;;;;2.40;1.90;;;;;;;24.14;45.53;101151.34;110565;1260;22446;-51